Time;durP1;ratioP1;P1;durP2;ratioP2;P2;SDS_P1;SDS_P2;PMS_P1;PMS_P2;Temp;Humidity;BMP_temperature;BMP_pressure;BME280_temperature;BME280_humidity;BME280_pressure;Samples;Min_cycle;Max_cycle;Signal;HPM_P1;HPM_P2
2022/06/01 00:00:29;;;;;;;3.13;1.50;;;;;;;;;;5010139;28;20038;-74
2022/06/01 00:02:55;;;;;;;4.55;1.85;;;;;;;;;;5010053;28;20367;-74
2022/06/01 00:05:20;;;;;;;1.88;1.65;;;;;;;;;;5008978;28;20022;-74
2022/06/01 00:07:47;;;;;;;3.58;1.80;;;;;;;;;;5009269;28;20030;-73
2022/06/01 00:10:13;;;;;;;1.60;1.50;;;;;;;;;;5010074;28;20503;-73
2022/06/01 00:12:38;;;;;;;2.60;1.52;;;;;;;;;;5009472;28;20145;-73
2022/06/01 00:15:04;;;;;;;4.97;2.20;;;;;;;;;;5010212;28;20475;-73
2022/06/01 00:17:30;;;;;;;2.15;1.50;;;;;;;;;;5008973;28;20147;-73
2022/06/01 00:19:55;;;;;;;4.80;1.73;;;;;;;;;;5007822;28;20026;-73
2022/06/01 00:22:20;;;;;;;3.15;1.70;;;;;;;;;;5009612;28;20033;-73
2022/06/01 00:24:47;;;;;;;2.60;1.60;;;;;;;;;;5009812;28;20514;-74
2022/06/01 00:27:14;;;;;;;2.03;1.40;;;;;;;;;;5008728;28;20030;-73
2022/06/01 00:29:39;;;;;;;3.53;1.63;;;;;;;;;;5006624;28;20120;-75
2022/06/01 00:32:06;;;;;;;2.20;1.70;;;;;;;;;;5002576;28;20124;-73
2022/06/01 00:34:31;;;;;;;1.63;1.50;;;;;;;;;;5009009;28;20021;-73
2022/06/01 00:36:57;;;;;;;2.22;1.40;;;;;;;;;;5009505;28;20026;-74
2022/06/01 00:39:22;;;;;;;3.47;1.67;;;;;;;;;;5009911;28;20040;-73
2022/06/01 00:41:47;;;;;;;2.70;1.60;;;;;;;;;;5017135;28;20057;-73
2022/06/01 00:44:13;;;;;;;2.33;2.13;;;;;;;;;;5013288;28;20030;-73
2022/06/01 00:46:38;;;;;;;2.33;1.58;;;;;;;;;;5009782;28;20495;-73
2022/06/01 00:49:13;;;;;;;3.63;2.53;;;;;;;;;;5009003;28;20028;-73
2022/06/01 00:51:40;;;;;;;1.80;1.60;;;;;;;;;;5001033;28;20092;-73
2022/06/01 00:54:05;;;;;;;3.17;1.83;;;;;;;;;;5009318;28;20368;-73
2022/06/01 00:56:54;;;;;;;2.95;1.50;;;;;;;;;;5009135;28;20033;-75
2022/06/01 00:59:22;;;;;;;2.28;1.52;;;;;;;;;;5008051;28;20060;-73
2022/06/01 01:01:49;;;;;;;2.80;1.50;;;;;;;;;;5009410;28;20041;-73
2022/06/01 01:04:14;;;;;;;2.33;1.40;;;;;;;;;;5008579;28;20064;-72
2022/06/01 01:06:41;;;;;;;1.70;1.50;;;;;;;;;;5008546;28;20030;-73
2022/06/01 01:09:08;;;;;;;1.50;1.40;;;;;;;;;;5009067;28;20289;-73
2022/06/01 01:11:54;;;;;;;1.83;1.58;;;;;;;;;;5009365;28;20041;-73
2022/06/01 01:14:23;;;;;;;1.83;1.60;;;;;;;;;;5002263;28;20434;-73
2022/06/01 01:16:49;;;;;;;1.60;1.50;;;;;;;;;;5008862;28;20105;-74
2022/06/01 01:19:24;;;;;;;2.38;1.58;;;;;;;;;;5001947;28;20447;-73
2022/06/01 01:22:14;;;;;;;2.42;1.45;;;;;;;;;;5009443;28;20038;-73
2022/06/01 01:25:18;;;;;;;2.00;1.75;;;;;;;;;;5005146;28;20026;-73
2022/06/01 01:27:51;;;;;;;2.17;1.50;;;;;;;;;;5007023;28;20114;-73
2022/06/01 01:30:36;;;;;;;3.53;1.70;;;;;;;;;;5006687;28;20484;-73
2022/06/01 01:33:03;;;;;;;1.65;1.35;;;;;;;;;;5008301;28;20038;-73
2022/06/01 01:35:29;;;;;;;2.17;1.80;;;;;;;;;;5003025;28;20041;-73
2022/06/01 01:37:57;;;;;;;1.77;1.52;;;;;;;;;;5008535;28;20025;-73
2022/06/01 01:40:25;;;;;;;1.92;1.50;;;;;;;;;;5007055;28;20045;-72
2022/06/01 01:42:52;;;;;;;3.65;1.60;;;;;;;;;;5008137;28;20480;-74
2022/06/01 01:45:30;;;;;;;2.08;1.77;;;;;;;;;;5008416;28;20036;-74
2022/06/01 01:47:56;;;;;;;1.75;1.52;;;;;;;;;;5008688;28;20024;-74
2022/06/01 01:50:23;;;;;;;2.25;1.95;;;;;;;;;;5008396;28;20030;-73
2022/06/01 01:52:49;;;;;;;2.10;1.42;;;;;;;;;;5008550;28;20022;-73
2022/06/01 01:55:45;;;;;;;1.92;1.67;;;;;;;;;;5009166;28;20384;-76
2022/06/01 01:58:27;;;;;;;2.45;1.80;;;;;;;;;;5008311;28;20062;-73
2022/06/01 02:00:58;;;;;;;1.52;1.42;;;;;;;;;;5006389;28;20029;-73
2022/06/01 02:03:30;;;;;;;1.85;1.52;;;;;;;;;;5007871;28;20502;-73
2022/06/01 02:06:21;;;;;;;2.85;1.70;;;;;;;;;;5006885;28;20041;-73
2022/06/01 02:08:54;;;;;;;2.22;1.73;;;;;;;;;;5008902;28;20026;-74
2022/06/01 02:14:46;;;;;;;1.90;1.70;;;;;;;;;;5001598;28;20088;-73
2022/06/01 02:17:33;;;;;;;1.80;1.60;;;;;;;;;;5000677;28;20399;-73
2022/06/01 02:20:22;;;;;;;1.70;1.60;;;;;;;;;;5042672;22;20045;-72
2022/06/01 02:22:48;;;;;;;1.70;1.52;;;;;;;;;;5047683;28;20124;-71
2022/06/01 02:25:13;;;;;;;1.63;1.52;;;;;;;;;;5047759;28;20151;-72
2022/06/01 02:27:41;;;;;;;3.05;1.85;;;;;;;;;;5046162;28;20094;-71
2022/06/01 02:30:20;;;;;;;2.17;1.73;;;;;;;;;;5047050;28;20259;-72
2022/06/01 02:32:46;;;;;;;3.00;1.80;;;;;;;;;;5047175;28;20401;-72
2022/06/01 02:35:14;;;;;;;3.30;1.73;;;;;;;;;;5044945;28;20490;-71
2022/06/01 02:37:43;;;;;;;2.00;1.80;;;;;;;;;;5047409;28;20025;-71
2022/06/01 02:40:13;;;;;;;1.80;1.70;;;;;;;;;;5045670;28;20471;-72
2022/06/01 02:42:50;;;;;;;2.67;1.80;;;;;;;;;;5047105;28;20075;-72
2022/06/01 02:45:17;;;;;;;3.60;1.83;;;;;;;;;;5046340;28;20493;-72
2022/06/01 02:47:45;;;;;;;2.55;1.98;;;;;;;;;;5047463;28;20021;-71
2022/06/01 02:50:15;;;;;;;2.08;1.83;;;;;;;;;;5047488;28;20025;-72
2022/06/01 02:52:41;;;;;;;2.92;2.00;;;;;;;;;;5049392;28;20033;-73
2022/06/01 02:55:08;;;;;;;1.75;1.65;;;;;;;;;;5050795;28;20822;-72
2022/06/01 02:57:35;;;;;;;2.17;1.70;;;;;;;;;;5051192;28;20037;-74
2022/06/01 03:00:04;;;;;;;3.17;1.65;;;;;;;;;;5050451;28;20050;-74
2022/06/01 03:02:29;;;;;;;2.60;1.65;;;;;;;;;;5051106;28;20339;-74
2022/06/01 03:04:55;;;;;;;3.38;2.00;;;;;;;;;;5051221;28;20055;-74
2022/06/01 03:07:20;;;;;;;2.42;1.85;;;;;;;;;;5050387;28;20033;-74
2022/06/01 03:09:45;;;;;;;3.05;1.80;;;;;;;;;;5049751;28;20129;-74
2022/06/01 03:12:11;;;;;;;2.25;1.85;;;;;;;;;;5051111;28;20082;-74
2022/06/01 03:14:37;;;;;;;3.10;1.80;;;;;;;;;;5051052;28;20025;-74
2022/06/01 03:17:03;;;;;;;3.03;1.85;;;;;;;;;;5050842;28;20035;-74
2022/06/01 03:19:29;;;;;;;3.03;2.00;;;;;;;;;;5050274;28;20549;-74
2022/06/01 03:21:54;;;;;;;1.83;1.63;;;;;;;;;;5050857;28;20154;-74
2022/06/01 03:24:20;;;;;;;2.47;1.75;;;;;;;;;;5047324;28;20056;-74
2022/06/01 03:26:46;;;;;;;2.25;2.05;;;;;;;;;;5051244;28;20070;-74
2022/06/01 03:29:11;;;;;;;3.35;1.67;;;;;;;;;;5048065;28;20035;-74
2022/06/01 03:31:36;;;;;;;2.17;1.98;;;;;;;;;;5057253;28;20398;-74
2022/06/01 03:34:02;;;;;;;2.35;1.83;;;;;;;;;;5050666;28;20033;-74
2022/06/01 03:36:27;;;;;;;2.15;1.60;;;;;;;;;;5048365;28;20033;-74
2022/06/01 03:38:53;;;;;;;2.60;2.15;;;;;;;;;;5049368;28;20429;-74
2022/06/01 03:41:19;;;;;;;2.17;1.90;;;;;;;;;;5050819;28;20028;-74
2022/06/01 03:46:32;;;;;;;2.08;1.70;;;;;;;;;;5045009;28;20513;-74
2022/06/01 03:48:57;;;;;;;2.70;1.90;;;;;;;;;;5048387;28;20028;-74
2022/06/01 03:51:26;;;;;;;2.60;2.28;;;;;;;;;;5049994;28;20312;-73
2022/06/01 03:53:51;;;;;;;2.35;1.90;;;;;;;;;;5050207;28;20029;-72
2022/06/01 03:56:16;;;;;;;3.30;1.98;;;;;;;;;;5049896;28;20039;-73
2022/06/01 03:58:41;;;;;;;3.25;1.88;;;;;;;;;;5049462;28;20033;-72
2022/06/01 04:01:07;;;;;;;3.55;1.98;;;;;;;;;;5050176;28;20041;-72
2022/06/01 04:03:32;;;;;;;2.58;1.80;;;;;;;;;;5047782;28;20058;-73
2022/06/01 04:05:58;;;;;;;3.78;2.05;;;;;;;;;;5048863;28;20045;-73
2022/06/01 04:08:23;;;;;;;4.43;2.00;;;;;;;;;;5049393;28;20029;-72
2022/06/01 04:10:49;;;;;;;1.90;1.80;;;;;;;;;;5050123;28;20068;-72
2022/06/01 04:13:15;;;;;;;3.10;2.00;;;;;;;;;;5049026;28;20110;-72
2022/06/01 04:15:41;;;;;;;2.25;1.88;;;;;;;;;;5048591;28;20036;-72
2022/06/01 04:18:07;;;;;;;1.92;1.73;;;;;;;;;;5049503;28;20156;-72
2022/06/01 04:20:33;;;;;;;3.30;1.95;;;;;;;;;;5050215;28;20534;-72
2022/06/01 04:23:00;;;;;;;2.75;1.98;;;;;;;;;;5048417;28;20387;-72
2022/06/01 04:25:27;;;;;;;2.38;1.90;;;;;;;;;;5048572;28;20040;-72
2022/06/01 04:27:52;;;;;;;4.22;2.10;;;;;;;;;;5048635;28;20494;-72
2022/06/01 04:30:20;;;;;;;2.50;2.10;;;;;;;;;;5046414;28;20131;-72
2022/06/01 04:32:47;;;;;;;1.83;1.58;;;;;;;;;;5048137;28;20031;-72
2022/06/01 04:35:13;;;;;;;2.08;1.90;;;;;;;;;;5048371;28;20095;-73
2022/06/01 04:37:38;;;;;;;57.10;51.05;;;;;;;;;;5049342;28;20482;-73
2022/06/01 04:40:05;;;;;;;16.70;15.02;;;;;;;;;;5048557;28;20250;-73
2022/06/01 04:42:30;;;;;;;3.08;2.70;;;;;;;;;;5051259;28;20025;-73
2022/06/01 04:44:55;;;;;;;2.92;2.38;;;;;;;;;;5051583;28;20035;-73
2022/06/01 04:47:21;;;;;;;2.65;2.00;;;;;;;;;;5048815;28;20044;-73
2022/06/01 04:49:49;;;;;;;2.78;2.15;;;;;;;;;;5048557;28;20031;-72
2022/06/01 04:52:14;;;;;;;2.20;2.00;;;;;;;;;;5040742;28;20040;-73
2022/06/01 04:54:40;;;;;;;2.08;1.85;;;;;;;;;;5047262;28;20025;-73
2022/06/01 04:57:06;;;;;;;4.22;1.80;;;;;;;;;;5048184;28;20128;-73
2022/06/01 04:59:32;;;;;;;4.43;1.90;;;;;;;;;;5046792;28;20067;-73
2022/06/01 05:01:57;;;;;;;1.88;1.73;;;;;;;;;;5048478;28;20052;-72
2022/06/01 05:04:22;;;;;;;2.80;2.08;;;;;;;;;;5049197;28;20090;-73
2022/06/01 05:06:47;;;;;;;5.20;1.92;;;;;;;;;;5047370;28;20116;-73
2022/06/01 05:09:13;;;;;;;2.72;2.25;;;;;;;;;;5046200;28;20371;-73
2022/06/01 05:11:39;;;;;;;3.10;2.08;;;;;;;;;;5047678;28;20024;-73
2022/06/01 05:14:04;;;;;;;2.90;2.20;;;;;;;;;;5047322;28;20285;-72
2022/06/01 05:16:31;;;;;;;2.30;2.00;;;;;;;;;;5048951;28;20414;-72
2022/06/01 05:18:57;;;;;;;4.03;2.83;;;;;;;;;;5048307;28;20577;-73
2022/06/01 05:21:22;;;;;;;3.80;2.17;;;;;;;;;;5048468;28;20044;-73
2022/06/01 05:23:47;;;;;;;3.88;1.90;;;;;;;;;;5048166;28;20831;-72
2022/06/01 05:26:13;;;;;;;3.70;2.22;;;;;;;;;;5046322;28;20033;-72
2022/06/01 05:28:38;;;;;;;3.20;2.10;;;;;;;;;;5042451;28;20063;-73
2022/06/01 05:31:07;;;;;;;2.35;1.80;;;;;;;;;;5048240;28;20063;-73
2022/06/01 05:33:33;;;;;;;3.47;2.10;;;;;;;;;;5046996;28;20534;-73
2022/06/01 05:35:59;;;;;;;2.40;2.20;;;;;;;;;;5048099;28;20079;-72
2022/06/01 05:38:24;;;;;;;3.17;1.95;;;;;;;;;;5046155;28;20438;-73
2022/06/01 05:40:50;;;;;;;4.72;2.20;;;;;;;;;;5047241;28;20056;-73
2022/06/01 05:43:17;;;;;;;2.00;1.80;;;;;;;;;;5048050;28;20040;-73
2022/06/01 05:45:43;;;;;;;3.80;2.05;;;;;;;;;;5047606;28;20390;-73
2022/06/01 05:48:11;;;;;;;2.22;2.03;;;;;;;;;;5046862;28;20040;-73
2022/06/01 05:50:36;;;;;;;2.45;2.08;;;;;;;;;;5045221;28;20029;-73
2022/06/01 05:53:02;;;;;;;4.90;2.30;;;;;;;;;;5047207;28;20083;-72
2022/06/01 05:55:27;;;;;;;3.33;1.80;;;;;;;;;;5046714;28;20371;-73
2022/06/01 05:57:53;;;;;;;4.72;2.22;;;;;;;;;;5048377;28;20110;-72
2022/06/01 06:00:19;;;;;;;2.80;2.17;;;;;;;;;;5046908;28;20109;-73
2022/06/01 06:02:45;;;;;;;2.58;1.90;;;;;;;;;;5048399;28;20047;-73
2022/06/01 06:07:56;;;;;;;2.88;1.90;;;;;;;;;;5047297;28;20040;-73
2022/06/01 06:10:21;;;;;;;4.78;2.55;;;;;;;;;;5046806;28;20029;-72
2022/06/01 06:12:47;;;;;;;2.50;1.98;;;;;;;;;;5042436;28;20040;-73
2022/06/01 06:15:12;;;;;;;2.35;2.03;;;;;;;;;;5031862;28;20037;-73
2022/06/01 06:17:38;;;;;;;3.40;2.00;;;;;;;;;;5043510;28;20060;-74
2022/06/01 06:20:04;;;;;;;2.53;1.88;;;;;;;;;;5043776;28;20032;-74
2022/06/01 06:22:29;;;;;;;2.60;1.77;;;;;;;;;;5044715;28;20037;-72
2022/06/01 06:24:54;;;;;;;3.33;2.40;;;;;;;;;;5042202;28;20040;-73
2022/06/01 06:27:19;;;;;;;3.95;1.58;;;;;;;;;;5042888;28;20033;-73
2022/06/01 06:29:45;;;;;;;4.95;1.60;;;;;;;;;;5042763;28;20634;-74
2022/06/01 06:32:10;;;;;;;3.92;1.48;;;;;;;;;;5036557;28;20040;-74
2022/06/01 06:34:36;;;;;;;2.38;1.70;;;;;;;;;;5037583;28;20039;-73
2022/06/01 06:37:01;;;;;;;3.58;1.85;;;;;;;;;;5041601;28;20079;-74
2022/06/01 06:39:26;;;;;;;2.90;1.70;;;;;;;;;;5039582;28;20033;-74
2022/06/01 06:41:52;;;;;;;2.60;1.38;;;;;;;;;;5042002;28;20391;-73
2022/06/01 06:44:17;;;;;;;3.13;1.30;;;;;;;;;;5040815;28;20051;-73
2022/06/01 06:46:42;;;;;;;2.17;1.30;;;;;;;;;;5040679;28;20036;-73
2022/06/01 06:49:08;;;;;;;3.95;1.23;;;;;;;;;;5040622;28;20112;-73
2022/06/01 06:51:33;;;;;;;2.03;1.10;;;;;;;;;;5039047;28;20856;-74
2022/06/01 06:53:58;;;;;;;2.15;1.27;;;;;;;;;;5040256;28;20067;-73
2022/06/01 06:56:24;;;;;;;2.08;1.25;;;;;;;;;;5039760;28;20151;-74
2022/06/01 06:58:50;;;;;;;2.65;1.15;;;;;;;;;;5035108;28;20096;-73
2022/06/01 07:01:16;;;;;;;2.63;1.20;;;;;;;;;;5041640;28;20021;-74
2022/06/01 07:03:41;;;;;;;2.05;1.15;;;;;;;;;;5039411;28;20296;-74
2022/06/01 07:06:10;;;;;;;1.23;1.00;;;;;;;;;;5039214;28;20029;-74
2022/06/01 07:08:37;;;;;;;2.28;1.27;;;;;;;;;;5038795;28;20063;-73
2022/06/01 07:11:02;;;;;;;1.98;0.90;;;;;;;;;;5040015;28;20445;-74
2022/06/01 07:13:28;;;;;;;0.90;0.85;;;;;;;;;;5040208;28;20029;-73
2022/06/01 07:16:38;;;;;;;1.17;1.08;;;;;;;;;;5037903;28;20359;-75
2022/06/01 07:19:05;;;;;;;2.33;1.00;;;;;;;;;;5039281;28;20418;-72
2022/06/01 07:21:31;;;;;;;1.45;0.90;;;;;;;;;;5040667;28;20472;-72
2022/06/01 07:23:57;;;;;;;1.40;1.10;;;;;;;;;;5040754;28;20033;-71
2022/06/01 07:26:25;;;;;;;1.45;0.80;;;;;;;;;;5041266;28;20083;-71
2022/06/01 07:28:51;;;;;;;0.60;0.60;;;;;;;;;;5037570;28;20025;-75
2022/06/01 07:31:17;;;;;;;1.73;0.93;;;;;;;;;;5040179;28;20150;-74
2022/06/01 07:33:43;;;;;;;1.20;0.80;;;;;;;;;;5039499;28;20025;-73
2022/06/01 07:36:11;;;;;;;2.15;0.75;;;;;;;;;;5040444;28;20455;-75
2022/06/01 07:44:15;;;;;;;0.95;0.70;;;;;;;;;;5043344;28;20522;-76
2022/06/01 07:46:40;;;;;;;1.50;0.75;;;;;;;;;;5044815;28;20028;-73
2022/06/01 07:49:08;;;;;;;1.48;0.70;;;;;;;;;;5044106;28;20313;-72
2022/06/01 07:51:38;;;;;;;3.00;2.08;;;;;;;;;;5039635;28;20033;-73
2022/06/01 07:54:04;;;;;;;0.90;0.70;;;;;;;;;;5043910;28;20487;-73
2022/06/01 07:56:29;;;;;;;2.42;0.90;;;;;;;;;;5042971;28;20564;-76
2022/06/01 07:58:54;;;;;;;1.35;1.00;;;;;;;;;;5042907;28;20028;-77
2022/06/01 08:01:26;;;;;;;1.45;1.00;;;;;;;;;;5042202;28;20037;-77
2022/06/01 08:03:52;;;;;;;;;;;;;;;;;;5043079;28;20238;-73
2022/06/01 08:06:17;;;;;;;2.83;0.70;;;;;;;;;;5043784;28;19938;-75
2022/06/01 08:08:42;;;;;;;1.52;0.63;;;;;;;;;;5045350;28;20108;-74
2022/06/01 08:11:08;;;;;;;1.07;0.50;;;;;;;;;;5042545;28;20033;-74
2022/06/01 08:13:33;;;;;;;2.67;2.25;;;;;;;;;;5039439;28;20740;-74
2022/06/01 08:16:00;;;;;;;1.20;0.70;;;;;;;;;;5042572;28;20033;-72
2022/06/01 08:18:26;;;;;;;0.90;0.63;;;;;;;;;;5042082;28;20045;-73
2022/06/01 08:20:52;;;;;;;0.65;0.60;;;;;;;;;;5043810;28;20398;-73
2022/06/01 08:23:20;;;;;;;0.75;0.60;;;;;;;;;;5043972;28;20395;-73
2022/06/01 08:25:45;;;;;;;2.90;0.70;;;;;;;;;;5042563;28;20078;-74
2022/06/01 08:28:11;;;;;;;0.90;0.60;;;;;;;;;;5043275;28;20028;-75
2022/06/01 08:30:39;;;;;;;0.82;0.60;;;;;;;;;;5040444;28;20351;-77
2022/06/01 08:33:05;;;;;;;2.15;0.73;;;;;;;;;;5051315;28;20028;-75
2022/06/01 08:35:37;;;;;;;1.13;0.70;;;;;;;;;;5052017;28;20095;-74
2022/06/01 08:38:03;;;;;;;0.82;0.60;;;;;;;;;;5041441;28;20063;-74
2022/06/01 08:41:01;;;;;;;1.33;0.80;;;;;;;;;;5038975;28;20094;-73
2022/06/01 08:43:32;;;;;;;1.35;0.90;;;;;;;;;;5033835;28;20116;-74
2022/06/01 08:46:00;;;;;;;0.60;0.50;;;;;;;;;;5041818;28;20040;-74
2022/06/01 08:48:33;;;;;;;0.93;0.50;;;;;;;;;;5039987;28;20033;-77
2022/06/01 08:50:59;;;;;;;0.60;0.57;;;;;;;;;;5040889;28;20036;-77
2022/06/01 08:53:24;;;;;;;0.98;0.63;;;;;;;;;;5042365;28;20201;-73
2022/06/01 08:56:01;;;;;;;1.48;0.68;;;;;;;;;;5041729;28;20060;-74
2022/06/01 08:58:55;;;;;;;0.90;0.63;;;;;;;;;;5041855;28;20040;-73
2022/06/01 09:01:39;;;;;;;2.35;0.70;;;;;;;;;;5042591;28;20044;-76
2022/06/01 09:04:39;;;;;;;1.73;0.70;;;;;;;;;;5040130;28;20478;-73
2022/06/01 09:07:20;;;;;;;0.40;0.40;;;;;;;;;;5042170;28;20059;-72
2022/06/01 09:10:07;;;;;;;1.13;0.63;;;;;;;;;;5042598;28;20108;-76
2022/06/01 09:12:33;;;;;;;1.17;0.50;;;;;;;;;;5042726;28;20128;-77
2022/06/01 09:15:09;;;;;;;2.25;0.70;;;;;;;;;;5042139;28;20028;-73
2022/06/01 09:17:35;;;;;;;2.28;0.60;;;;;;;;;;5041867;28;20048;-74
2022/06/01 09:22:46;;;;;;;1.38;0.60;;;;;;;;;;5040921;28;20036;-74
2022/06/01 09:25:13;;;;;;;1.58;0.60;;;;;;;;;;5041582;28;20044;-75
2022/06/01 09:27:41;;;;;;;0.50;0.50;;;;;;;;;;5041159;28;20036;-73
2022/06/01 09:30:25;;;;;;;0.65;0.40;;;;;;;;;;5040937;28;20111;-73
2022/06/01 09:33:04;;;;;;;1.45;0.60;;;;;;;;;;5040903;28;20016;-71
2022/06/01 09:35:34;;;;;;;0.85;0.60;;;;;;;;;;5037900;28;20041;-74
2022/06/01 09:38:03;;;;;;;0.73;0.40;;;;;;;;;;5040745;28;20033;-72
2022/06/01 09:40:32;;;;;;;0.40;0.40;;;;;;;;;;5039120;28;20131;-72
2022/06/01 09:43:01;;;;;;;0.40;0.40;;;;;;;;;;5039016;28;20121;-74
2022/06/01 09:45:38;;;;;;;0.40;0.40;;;;;;;;;;5039211;28;20108;-72
2022/06/01 09:48:16;;;;;;;0.50;0.50;;;;;;;;;;5036828;28;20017;-71
2022/06/01 09:50:45;;;;;;;0.40;0.40;;;;;;;;;;5040895;28;20102;-71
2022/06/01 09:53:10;;;;;;;1.00;0.60;;;;;;;;;;5041140;28;20038;-71
2022/06/01 09:55:49;;;;;;;0.60;0.50;;;;;;;;;;5041119;28;20025;-70
2022/06/01 10:06:05;;;;;;;0.50;0.50;;;;;;;;;;5028998;28;20028;-72
2022/06/01 10:06:51;;;;;;;0.90;0.52;;;;;;;;;;5040675;28;20610;-72
2022/06/01 10:09:21;;;;;;;1.27;0.50;;;;;;;;;;5021274;28;20260;-75
2022/06/01 10:11:48;;;;;;;1.45;0.55;;;;;;;;;;5021430;28;20071;-77
2022/06/01 10:14:18;;;;;;;0.93;0.60;;;;;;;;;;5036886;28;20053;-74
2022/06/01 10:17:16;;;;;;;0.30;0.30;;;;;;;;;;5040444;28;20486;-72
2022/06/01 10:19:47;;;;;;;0.75;0.50;;;;;;;;;;5034902;28;20411;-72
2022/06/01 10:22:27;;;;;;;1.00;0.40;;;;;;;;;;5035502;28;20033;-73
2022/06/01 10:25:01;;;;;;;0.75;0.50;;;;;;;;;;5036746;28;20316;-73
2022/06/01 10:27:30;;;;;;;1.27;0.60;;;;;;;;;;5038183;28;20497;-73
2022/06/01 10:30:19;;;;;;;1.90;0.50;;;;;;;;;;5037963;28;20029;-74
2022/06/01 10:33:10;;;;;;;0.85;0.50;;;;;;;;;;5035413;28;20029;-74
2022/06/01 10:35:44;;;;;;;2.25;0.50;;;;;;;;;;5038715;28;20096;-73
2022/06/01 10:38:12;;;;;;;0.40;0.40;;;;;;;;;;5037122;28;20079;-71
2022/06/01 10:40:44;;;;;;;0.98;0.70;;;;;;;;;;5038660;28;20413;-72
2022/06/01 10:43:20;;;;;;;1.70;0.50;;;;;;;;;;5039049;28;20033;-70
2022/06/01 10:45:52;;;;;;;0.50;0.50;;;;;;;;;;5042171;28;20036;-70
2022/06/01 10:48:23;;;;;;;1.70;0.57;;;;;;;;;;5043085;28;20025;-71
2022/06/01 10:51:07;;;;;;;0.55;0.55;;;;;;;;;;5040290;28;20021;-71
2022/06/01 10:53:59;;;;;;;1.33;0.60;;;;;;;;;;5039460;28;20060;-72
2022/06/01 10:56:25;;;;;;;2.13;1.52;;;;;;;;;;5044389;28;20441;-74
2022/06/01 10:58:54;;;;;;;1.88;1.13;;;;;;;;;;5041316;28;20108;-73
2022/06/01 11:01:38;;;;;;;0.70;0.50;;;;;;;;;;5044848;28;20064;-74
2022/06/01 11:04:48;;;;;;;0.55;0.52;;;;;;;;;;5045258;28;20024;-72
2022/06/01 11:07:16;;;;;;;3.05;0.60;;;;;;;;;;5025344;28;20439;-71
2022/06/01 11:10:00;;;;;;;1.65;0.55;;;;;;;;;;5043796;28;20029;-72
2022/06/01 11:12:45;;;;;;;1.10;0.60;;;;;;;;;;5045713;28;20024;-70
2022/06/01 11:15:23;;;;;;;3.30;0.95;;;;;;;;;;5048136;28;20025;-71
2022/06/01 11:18:02;;;;;;;0.88;0.75;;;;;;;;;;5048846;28;20170;-71
2022/06/01 11:20:57;;;;;;;1.27;0.55;;;;;;;;;;5047224;28;20284;-70
2022/06/01 11:23:47;;;;;;;0.98;0.75;;;;;;;;;;5047899;28;20024;-70
2022/06/01 11:26:38;;;;;;;1.13;0.50;;;;;;;;;;5049111;28;20032;-72
2022/06/01 11:29:39;;;;;;;2.00;0.63;;;;;;;;;;5046431;28;20020;-71
2022/06/01 11:32:13;;;;;;;1.92;0.63;;;;;;;;;;5046103;28;20059;-71
2022/06/01 11:34:44;;;;;;;0.93;0.60;;;;;;;;;;5048369;28;20656;-71
2022/06/01 11:37:21;;;;;;;0.52;0.50;;;;;;;;;;5048449;28;20371;-70
2022/06/01 11:39:55;;;;;;;0.50;0.50;;;;;;;;;;5048471;28;20033;-72
2022/06/01 11:42:48;;;;;;;0.60;0.60;;;;;;;;;;5047926;28;20474;-71
2022/06/01 11:45:19;;;;;;;0.93;0.70;;;;;;;;;;5047216;28;20060;-72
2022/06/01 11:47:55;;;;;;;0.90;0.57;;;;;;;;;;5048373;28;20529;-73
2022/06/01 11:50:43;;;;;;;0.63;0.60;;;;;;;;;;5048097;28;20021;-71
2022/06/01 11:53:12;;;;;;;2.33;0.60;;;;;;;;;;5047166;28;20059;-72
2022/06/01 11:55:37;;;;;;;0.60;0.52;;;;;;;;;;5046894;28;20043;-70
2022/06/01 11:58:12;;;;;;;0.77;0.53;;;;;;;;;;5047032;28;20033;-73
2022/06/01 12:00:48;;;;;;;1.17;0.60;;;;;;;;;;5046949;28;20300;-72
2022/06/01 12:03:22;;;;;;;0.65;0.40;;;;;;;;;;5047613;28;20035;-75
2022/06/01 12:06:35;;;;;;;0.82;0.50;;;;;;;;;;5047714;28;20025;-76
2022/06/01 12:09:03;;;;;;;0.55;0.45;;;;;;;;;;5046164;28;20024;-73
2022/06/01 12:11:41;;;;;;;1.55;0.50;;;;;;;;;;5047930;28;20033;-75
2022/06/01 12:14:26;;;;;;;2.30;0.60;;;;;;;;;;5048845;28;20398;-75
2022/06/01 12:17:22;;;;;;;1.38;0.60;;;;;;;;;;5048091;28;20021;-76
2022/06/01 12:19:50;;;;;;;0.50;0.50;;;;;;;;;;5047890;28;20625;-77
2022/06/01 12:28:31;;;;;;;1.67;0.60;;;;;;;;;;5048150;28;20075;-75
2022/06/01 12:31:20;;;;;;;0.85;0.60;;;;;;;;;;5047671;28;20443;-74
2022/06/01 12:34:03;;;;;;;0.65;0.60;;;;;;;;;;5045623;28;20556;-76
2022/06/01 12:36:45;;;;;;;0.65;0.52;;;;;;;;;;5046962;28;20115;-78
2022/06/01 12:39:16;;;;;;;0.98;0.60;;;;;;;;;;5045986;28;20056;-78
2022/06/01 12:41:45;;;;;;;0.63;0.57;;;;;;;;;;5047429;28;20036;-73
2022/06/01 12:44:11;;;;;;;2.22;0.57;;;;;;;;;;5048051;28;20037;-76
2022/06/01 12:46:39;;;;;;;6.93;5.72;;;;;;;;;;5047458;28;20096;-76
2022/06/01 12:49:28;;;;;;;1.13;0.80;;;;;;;;;;5047666;28;20017;-75
2022/06/01 12:51:55;;;;;;;1.13;0.60;;;;;;;;;;5046348;28;20021;-75
2022/06/01 12:54:35;;;;;;;1.33;0.70;;;;;;;;;;5046851;28;20501;-75
2022/06/01 12:57:03;;;;;;;1.45;0.55;;;;;;;;;;5047061;28;20036;-75
2022/06/01 12:59:33;;;;;;;1.13;0.60;;;;;;;;;;5046576;28;20032;-77
2022/06/01 13:02:01;;;;;;;1.50;0.70;;;;;;;;;;5047696;28;20025;-79
2022/06/01 13:04:27;;;;;;;1.17;0.60;;;;;;;;;;5048028;28;20037;-78
2022/06/01 13:06:53;;;;;;;1.20;0.50;;;;;;;;;;5047028;28;20028;-73
2022/06/01 13:09:23;;;;;;;0.52;0.50;;;;;;;;;;5047125;28;20429;-76
2022/06/01 13:12:17;;;;;;;0.60;0.60;;;;;;;;;;5046425;28;20397;-77
2022/06/01 13:14:44;;;;;;;0.55;0.55;;;;;;;;;;5044342;28;20037;-75
2022/06/01 13:17:18;;;;;;;1.42;0.60;;;;;;;;;;5046510;28;20021;-75
2022/06/01 13:19:56;;;;;;;0.88;0.60;;;;;;;;;;5044553;28;20082;-75
2022/06/01 13:22:28;;;;;;;0.75;0.60;;;;;;;;;;5046793;28;20025;-75
2022/06/01 13:25:03;;;;;;;1.33;0.70;;;;;;;;;;5046497;28;20070;-74
2022/06/01 13:27:29;;;;;;;0.50;0.50;;;;;;;;;;5045724;28;20037;-74
2022/06/01 13:29:59;;;;;;;0.75;0.60;;;;;;;;;;5045304;28;20028;-74
2022/06/01 13:32:34;;;;;;;0.60;0.60;;;;;;;;;;5043710;28;20122;-74
2022/06/01 13:35:17;;;;;;;1.00;0.70;;;;;;;;;;5043873;28;20437;-74
2022/06/01 13:37:44;;;;;;;2.88;0.80;;;;;;;;;;5045987;28;20453;-75
2022/06/01 13:40:23;;;;;;;0.60;0.60;;;;;;;;;;5045607;28;20029;-74
2022/06/01 13:42:58;;;;;;;1.52;0.70;;;;;;;;;;5046505;28;20440;-75
2022/06/01 13:45:35;;;;;;;0.60;0.60;;;;;;;;;;5045780;28;20489;-74
2022/06/01 13:48:12;;;;;;;1.05;0.65;;;;;;;;;;5043242;28;20032;-72
2022/06/01 13:50:44;;;;;;;0.88;0.70;;;;;;;;;;5045843;28;20021;-75
2022/06/01 13:53:21;;;;;;;1.67;0.60;;;;;;;;;;5044616;28;20481;-76
2022/06/01 13:56:00;;;;;;;0.77;0.52;;;;;;;;;;5046106;28;20091;-73
2022/06/01 13:58:33;;;;;;;0.70;0.63;;;;;;;;;;5045880;28;20144;-75
2022/06/01 14:01:09;;;;;;;0.85;0.50;;;;;;;;;;5046047;28;20025;-74
2022/06/01 14:03:54;;;;;;;0.80;0.50;;;;;;;;;;5043519;28;20029;-75
2022/06/01 14:06:33;;;;;;;2.10;0.70;;;;;;;;;;5036964;28;20036;-75
2022/06/01 14:09:00;;;;;;;2.28;0.70;;;;;;;;;;5045369;28;20028;-74
2022/06/01 14:11:30;;;;;;;2.83;0.68;;;;;;;;;;5045627;28;20025;-76
2022/06/01 14:14:00;;;;;;;1.00;0.70;;;;;;;;;;5045451;28;20021;-74
2022/06/01 14:16:25;;;;;;;0.45;0.45;;;;;;;;;;5045077;28;20708;-74
2022/06/01 14:18:56;;;;;;;1.33;0.80;;;;;;;;;;5044842;28;20025;-75
2022/06/01 14:21:22;;;;;;;1.10;0.68;;;;;;;;;;5064936;22;20137;-72
2022/06/01 14:23:48;;;;;;;0.50;0.50;;;;;;;;;;5045774;28;20490;-74
2022/06/01 14:28:57;;;;;;;0.63;0.50;;;;;;;;;;5047017;28;20473;-76
2022/06/01 14:31:28;;;;;;;0.40;0.40;;;;;;;;;;5044518;28;20033;-72
2022/06/01 14:33:55;;;;;;;0.70;0.52;;;;;;;;;;5042587;28;20036;-74
2022/06/01 14:36:21;;;;;;;2.40;0.70;;;;;;;;;;5046265;28;20421;-74
2022/06/01 14:38:47;;;;;;;1.00;0.60;;;;;;;;;;5045260;28;20490;-72
2022/06/01 14:41:34;;;;;;;0.82;0.75;;;;;;;;;;5044681;28;20048;-72
2022/06/01 14:44:02;;;;;;;2.78;0.68;;;;;;;;;;5044861;28;20421;-73
2022/06/01 14:46:27;;;;;;;1.02;0.60;;;;;;;;;;5044988;28;20033;-74
2022/06/01 14:48:53;;;;;;;0.70;0.70;;;;;;;;;;5046788;28;20518;-74
2022/06/01 14:51:23;;;;;;;1.95;0.73;;;;;;;;;;5047230;28;20029;-77
2022/06/01 14:53:50;;;;;;;2.00;0.73;;;;;;;;;;5048803;28;20037;-72
2022/06/01 14:56:15;;;;;;;1.15;0.70;;;;;;;;;;5048955;28;20029;-78
2022/06/01 14:58:40;;;;;;;1.00;0.68;;;;;;;;;;5048431;28;20036;-73
2022/06/01 15:01:11;;;;;;;1.05;0.80;;;;;;;;;;5049669;28;20139;-72
2022/06/01 15:03:39;;;;;;;0.93;0.60;;;;;;;;;;5049523;28;20025;-74
2022/06/01 15:06:05;;;;;;;1.75;0.80;;;;;;;;;;5050095;28;20383;-73
2022/06/01 15:08:30;;;;;;;2.45;0.82;;;;;;;;;;5049341;28;20021;-72
2022/06/01 15:10:55;;;;;;;0.98;0.90;;;;;;;;;;5046387;28;20025;-72
2022/06/01 15:13:21;;;;;;;0.93;0.70;;;;;;;;;;5048409;28;20031;-74
2022/06/01 15:15:46;;;;;;;0.70;0.70;;;;;;;;;;5049380;28;20033;-73
2022/06/01 15:18:13;;;;;;;1.10;0.77;;;;;;;;;;5048075;28;20032;-77
2022/06/01 15:20:38;;;;;;;0.85;0.63;;;;;;;;;;5047178;28;20029;-74
2022/06/01 15:23:05;;;;;;;1.17;0.80;;;;;;;;;;5048889;28;20025;-72
2022/06/01 15:25:30;;;;;;;1.17;0.60;;;;;;;;;;5045221;28;20036;-73
2022/06/01 15:27:56;;;;;;;1.80;1.00;;;;;;;;;;5048108;28;20385;-75
2022/06/01 15:41:17;;;;;;;0.95;0.75;;;;;;;;;;5040455;28;20059;-73
2022/06/01 15:43:43;;;;;;;0.70;0.70;;;;;;;;;;5048489;28;20021;-75
2022/06/01 15:46:13;;;;;;;1.13;0.70;;;;;;;;;;5046879;28;20017;-75